• Join FlightAware (Why Join?)
  • Login
  • US Flag 
11:17AM EDT


 

Airport Tracker/Info


-or-


 

Live Flight TrackerFlight Track Log ✈ N36WP ✈ 21-Jun-2013 ✈ KLAN - KOSU

Flight Track Log - Related Links

Times and Time Zones

All times are in EDT time to prevent confusion due to time zone crossing. See the N36WP flight status page for this flight to view local times or setup timezone preferences in your user account.

Time Position Orientation Groundspeed Altitude Reporting Facility
EDT Latitude Longitude Course Direction KTS MPH feet Rate Location/Type
03:21PM 42.5539 -84.4548 160° South  Level Estimated
03:22PM 42.5165 -84.4331 144° Southeast  Level Estimated
03:23PM 42.4790 -84.4113 158° South  Level Estimated
03:24PM 42.4415 -84.3895 157° South  Level FlightAware Approximate
03:25PM 42.4040 -84.3679 157° South  Level FlightAware Approximate
03:26PM 42.3666 -84.3462 157° South  Level FlightAware Approximate
03:27PM 42.3291 -84.3245 157° South  Level FlightAware Approximate
03:28PM 42.2916 -84.3029 157° South  Level FlightAware Approximate
03:29PM 42.2541 -84.2813 157° South  Level FlightAware Approximate
03:30PM 42.2166 -84.2597 157° South  Level FlightAware Approximate
03:31PM 42.1791 -84.2382 157° South  Level FlightAware Approximate
03:32PM 42.1415 -84.2167 157° South  Level FlightAware Approximate
03:33PM 42.1040 -84.1952 157° South  Level FlightAware Approximate
03:34PM 42.0665 -84.1737 151° Southeast  Level Estimated
03:34PM 42.0594 -84.1997 159° South 153 176 9,000  Level Indianapolis Center
03:35PM 42.0316 -84.1454 149° Southeast  Level FlightAware Approximate
03:35PM 42.0197 -84.1775 157° South 153 176 9,000  Level Indianapolis Center
03:36PM 41.9940 -84.1241 160° South  Level Estimated
03:36PM 41.9819 -84.1519 153° Southeast 153 176 9,000  Level Indianapolis Center
03:37PM 41.9559 -84.1046 159° South  Level FlightAware Approximate
03:37PM 41.9403 -84.1297 158° South 154 177 9,000  Level Indianapolis Center
03:38PM 41.9179 -84.0851 159° South  Level FlightAware Approximate
03:38PM 41.8997 -84.1064 157° South 156 180 9,000  Level Indianapolis Center
03:39PM 41.8798 -84.0656 159° South  Level FlightAware Approximate
03:39PM 41.8600 -84.0844 158° South 155 178 9,000  Level Indianapolis Center
03:40PM 41.8417 -84.0461 159° South  Level FlightAware Approximate
03:40PM 41.8203 -84.0594 155° Southeast 155 178 9,000  Level Indianapolis Center
03:41PM 41.7814 -84.0361 156° South 154 177 9,000  Level Indianapolis Center
03:42PM 41.7350 -84.0106 158° South 153 176 9,000  Level Indianapolis Center
03:44PM 41.6967 -83.9881 156° South 152 175 9,000  Level Indianapolis Center
03:45PM 41.6572 -83.9647 156° South 152 175 9,000  Level Indianapolis Center
03:46PM 41.6181 -83.9425 157° South 153 176 9,000  Level Indianapolis Center
03:47PM 41.5794 -83.9194 156° South 152 175 9,000  Level Indianapolis Center
03:48PM 41.5403 -83.8969 157° South 152 175 9,000  Level Indianapolis Center
03:49PM 41.4994 -83.8750 158° South 154 177 9,000  Level Indianapolis Center
03:50PM 41.4525 -83.8472 156° South 156 180 9,000  Level Indianapolis Center
03:51PM 41.4125 -83.8233 156° South 157 181 9,000  Level Indianapolis Center
03:52PM 41.3731 -83.8008 157° South 155 178 9,000  Level Indianapolis Center
03:53PM 41.3325 -83.7781 157° South 155 178 9,000  Level Indianapolis Center
03:54PM 41.2906 -83.7681 170° South 154 177 9,000  Level Indianapolis Center
03:55PM 41.2486 -83.7719 184° South 150 173 9,000  Level Indianapolis Center
03:56PM 41.2094 -83.7819 191° South 144 166 9,000  Level Indianapolis Center
03:57PM 41.1628 -83.7514 154° Southeast 155 178 9,000  Level Indianapolis Center
03:58PM 41.1247 -83.7281 155° Southeast 152 175 9,000  Level Indianapolis Center
03:59PM 41.0856 -83.7014 153° Southeast 155 178 9,000  Level Indianapolis Center
04:00PM 41.0444 -83.6767 156° South 153 176 9,000  Level Indianapolis Center
04:01PM 41.0050 -83.6511 154° Southeast 156 180 9,000  Level Indianapolis Center
04:02PM 40.9653 -83.6269 155° Southeast 155 178 9,100  Climbing Indianapolis Center
04:03PM 40.9261 -83.6011 154° Southeast 155 178 9,000 -60 Descending Indianapolis Center
04:04PM 40.8864 -83.5764 155° Southeast 157 181 9,000  Level Indianapolis Center
04:05PM 40.8400 -83.5467 154° Southeast 157 181 9,100 -60 Climbing Indianapolis Center
04:06PM 40.7994 -83.5214 155° Southeast 159 183 8,900 -120 Descending Indianapolis Center
04:07PM 40.7586 -83.4950 154° Southeast 160 184 8,900  Level Indianapolis Center
04:08PM 40.7194 -83.4700 154° Southeast 156 180 8,900  Level Indianapolis Center
04:09PM 40.6803 -83.4464 155° Southeast 155 178 8,900  Level Indianapolis Center
04:10PM 40.6400 -83.4206 154° Southeast 158 182 8,900  Level Indianapolis Center
04:11PM 40.6011 -83.3969 155° Southeast 154 177 8,900  Level Indianapolis Center
04:12PM 40.5642 -83.3744 155° Southeast 148 170 8,900  Level Indianapolis Center
04:14PM 40.5211 -83.3464 154° Southeast 147 169 8,900  Level Indianapolis Center
04:15PM 40.4842 -83.3231 154° Southeast 145 167 8,900 -60 Level Indianapolis Center
04:16PM 40.4478 -83.3003 155° Southeast 144 166 8,800 -420 Descending Indianapolis Center
04:17PM 40.4083 -83.2775 156° South 149 171 8,100 -720 Descending Indianapolis Center
04:18PM 40.3639 -83.2481 153° Southeast 169 194 7,400 -780 Descending Indianapolis Center
04:19PM 40.3203 -83.2222 156° South 171 197 6,500 -960 Descending Indianapolis Center
04:20PM 40.2775 -83.1947 154° Southeast 170 196 5,500 -1,080 Descending Indianapolis Center
04:20PM 40.2458 -83.1783 158° South 173 199 4,800 -840 Descending Indianapolis Center
04:21PM 40.2058 -83.1519 153° Southeast 177 204 4,300 -360 Descending Indianapolis Center
04:22PM 40.1847 -83.1372 152° Southeast 168 193 4,300 -300 Level Indianapolis Center
04:23PM 40.1553 -83.1194 155° Southeast 139 160 3,900 -420 Descending Indianapolis Center
04:24PM 40.1367 -83.0919 132° Southeast 119 137 3,500 -720 Descending Indianapolis Center
04:25PM 40.1278 -83.0456 104° East 128 147 2,500 -960 Descending Indianapolis Center
04:26PM 40.0933 -83.0364 168° South 130 150 1,500 -660 Descending Indianapolis Center
04:27PM 40.0636 -83.0469 195° South 122 140 1,200 -300 Descending Indianapolis Center
04:29PM 40.0667 -83.0667 303° West  Level FlightAware Approximate